Terminal Aerodrome Forecast
Issued by NWS

Home | Current Version | Previous Version | Text Only | Print | Product List | Glossary On
Versions: 1 2 3 4 5 6 7 8 9 10 11 12 13
000
FTUS46 KSEW 202300 RRA
TAFBFI
TAF
KBFI 202343Z 2100/2124 22006KT P6SM FEW040 BKN250
     FM210600 17005KT P6SM BKN050
     FM211000 18005KT P6SM OVC020
     FM211800 23006KT P6SM BKN030
     FM212000 24006KT P6SM SCT040=

USA.gov is the U.S. government's official web portal to all federal, state and local government web resources and services.